Time;durP1;ratioP1;P1;durP2;ratioP2;P2;SDS_P1;SDS_P2;PMS_P1;PMS_P2;Temp;Humidity;BMP_temperature;BMP_pressure;BME280_temperature;BME280_humidity;BME280_pressure;Samples;Min_cycle;Max_cycle;Signal;HPM_P1;HPM_P2
2022/09/09 00:02:04;;;;;;;7.87;6.63;;;;;;;-141.28;100.00;50919.09;5076077;28;20228;-74
2022/09/09 00:04:33;;;;;;;10.37;6.83;;;;;;;-141.28;100.00;50928.91;5055350;28;20200;-76
2022/09/09 00:07:08;;;;;;;7.73;6.93;;;;;;;-141.28;100.00;50936.75;5055518;28;20729;-75
2022/09/09 00:09:46;;;;;;;12.53;7.40;;;;;;;-141.28;100.00;50958.38;5055595;28;20231;-75
2022/09/09 00:12:18;;;;;;;10.83;7.63;;;;;;;-141.28;100.00;50950.50;5066106;28;20192;-75
2022/09/09 00:14:53;;;;;;;7.70;7.00;;;;;;;-141.28;100.00;50962.28;5074456;28;20650;-77
2022/09/09 00:17:34;;;;;;;11.50;6.80;;;;;;;-141.28;100.00;50970.13;5074733;28;20353;-75
2022/09/09 00:20:07;;;;;;;11.20;7.87;;;;;;;-141.28;100.00;50923.03;5043983;28;20270;-73
2022/09/09 00:22:36;;;;;;;8.60;6.67;;;;;;;-141.28;100.00;50968.19;5057452;28;20209;-74
2022/09/09 00:25:12;;;;;;;8.03;6.90;;;;;;;-141.28;100.00;50936.75;5074334;28;20564;-76
2022/09/09 00:27:45;;;;;;;7.93;7.10;;;;;;;-141.28;100.00;50970.13;5073578;28;20254;-75
2022/09/09 00:30:19;;;;;;;12.67;6.87;;;;;;;-141.28;100.00;50970.13;5074276;28;20228;-74
2022/09/09 00:32:50;;;;;;;10.63;7.27;;;;;;;-141.28;100.00;50950.50;5047977;28;20201;-75
2022/09/09 00:35:23;;;;;;;9.30;6.90;;;;;;;-141.28;100.00;50932.84;5073584;28;20192;-75
2022/09/09 00:37:54;;;;;;;11.23;7.40;;;;;;;-141.28;100.00;50893.56;5073126;28;20208;-77
2022/09/09 00:40:30;;;;;;;8.43;7.47;;;;;;;-141.28;100.00;50950.50;5073602;28;20650;-76
2022/09/09 00:43:15;;;;;;;8.03;6.73;;;;;;;-141.28;100.00;50883.75;5073633;28;20563;-77
2022/09/09 00:46:26;;;;;;;9.50;7.40;;;;;;;-141.28;100.00;50981.91;5054891;28;20204;-77
2022/09/09 00:49:05;;;;;;;10.33;7.30;;;;;;;-141.28;100.00;50954.44;5061481;28;20219;-75
2022/09/09 00:51:46;;;;;;;10.00;7.97;;;;;;;-141.28;100.00;50942.66;5073555;28;20199;-77
2022/09/09 00:54:38;;;;;;;10.13;7.63;;;;;;;-141.28;100.00;50956.41;5052766;28;20201;-76
2022/09/09 00:57:16;;;;;;;14.07;7.57;;;;;;;-141.28;100.00;50907.31;5059152;28;20204;-77
2022/09/09 00:59:49;;;;;;;9.93;8.30;;;;;;;-141.28;100.00;50903.41;5073473;28;20207;-75
2022/09/09 01:02:27;;;;;;;10.67;7.30;;;;;;;-141.28;100.00;50862.16;5076715;28;20201;-75
2022/09/09 01:05:04;;;;;;;13.80;8.20;;;;;;;-141.28;100.00;50832.72;5109897;28;20191;-76
2022/09/09 01:07:31;;;;;;;10.00;8.13;;;;;;;-141.28;100.00;50797.38;5094117;28;20202;-73
2022/09/09 01:10:01;;;;;;;11.37;8.13;;;;;;;-141.28;100.00;50762.06;5093441;28;20310;-75
2022/09/09 01:12:41;;;;;;;13.07;7.77;;;;;;;-141.28;100.00;50740.47;5093463;28;20196;-75
2022/09/09 01:15:16;;;;;;;11.33;8.20;;;;;;;-141.28;100.00;50765.97;5083049;28;20198;-74
2022/09/09 01:17:58;;;;;;;10.80;7.87;;;;;;;-141.28;100.00;50765.97;5110630;28;20273;-75
2022/09/09 01:20:31;;;;;;;12.17;7.90;;;;;;;-141.28;100.00;50785.59;5104718;28;20194;-77
2022/09/09 01:23:13;;;;;;;8.90;7.63;;;;;;;-141.28;100.00;50762.06;5092381;28;20196;-76
2022/09/09 01:26:14;;;;;;;10.40;7.63;;;;;;;-141.28;100.00;50811.13;5091868;28;20203;-75
2022/09/09 01:28:44;;;;;;;10.77;7.97;;;;;;;-141.28;100.00;50828.78;5112852;28;20199;-74
2022/09/09 01:31:15;;;;;;;9.93;7.87;;;;;;;-141.28;100.00;50775.78;5092682;28;20192;-75
2022/09/09 01:33:42;;;;;;;13.90;8.50;;;;;;;-141.28;100.00;50691.38;5091180;28;20203;-74
2022/09/09 01:36:11;;;;;;;12.43;8.57;;;;;;;-141.28;100.00;50722.78;5092545;28;20203;-74
2022/09/09 01:38:38;;;;;;;10.83;7.60;;;;;;;-141.28;100.00;50663.91;5105450;28;20584;-74
2022/09/09 01:41:07;;;;;;;12.53;8.80;;;;;;;-141.28;100.00;50644.28;5117782;28;20199;-74
2022/09/09 01:43:34;;;;;;;13.57;8.60;;;;;;;-141.28;100.00;50632.50;5112116;28;20713;-74
2022/09/09 01:46:03;;;;;;;10.57;8.30;;;;;;;-141.28;100.00;50624.63;5093106;28;20191;-77
2022/09/09 01:48:32;;;;;;;15.83;9.17;;;;;;;-141.28;100.00;50585.38;5107443;28;20202;-75
2022/09/09 01:50:59;;;;;;;13.10;9.30;;;;;;;-141.28;100.00;50573.59;5112366;28;20240;-76
2022/09/09 01:53:26;;;;;;;14.40;9.00;;;;;;;-141.28;100.00;50499.00;5094569;28;20200;-78
2022/09/09 01:56:04;;;;;;;12.13;8.27;;;;;;;-141.28;100.00;50495.09;5092052;28;20223;-77
2022/09/09 01:58:46;;;;;;;11.20;8.77;;;;;;;-141.28;100.00;50522.56;5108073;28;20202;-74
2022/09/09 02:01:22;;;;;;;11.80;8.60;;;;;;;-141.28;100.00;50538.28;5111498;28;20198;-77
2022/09/09 02:03:56;;;;;;;14.00;8.30;;;;;;;-141.28;100.00;50546.13;5103518;28;20226;-76
2022/09/09 02:06:29;;;;;;;9.57;8.00;;;;;;;-141.28;100.00;50557.91;5104244;28;20254;-78
2022/09/09 02:09:04;;;;;;;10.47;8.33;;;;;;;-141.28;100.00;50544.16;5102404;28;20214;-74
2022/09/09 02:11:32;;;;;;;10.27;7.80;;;;;;;-141.28;100.00;50530.41;5093045;28;20187;-75
2022/09/09 02:14:06;;;;;;;11.23;8.43;;;;;;;-141.28;100.00;50546.13;5104138;28;20195;-75
2022/09/09 02:16:39;;;;;;;11.07;7.63;;;;;;;-141.28;100.00;50536.31;5091436;28;20192;-74
2022/09/09 02:19:13;;;;;;;12.60;8.60;;;;;;;-141.28;100.00;50567.72;5104612;28;20233;-76
2022/09/09 02:21:42;;;;;;;16.10;8.93;;;;;;;-141.28;100.00;50522.56;5112046;28;20194;-76
2022/09/09 02:24:14;;;;;;;14.77;8.60;;;;;;;-141.28;100.00;50465.66;5115628;28;20190;-74
2022/09/09 02:26:43;;;;;;;12.80;9.00;;;;;;;-141.28;100.00;50457.78;5102844;28;20196;-75
2022/09/09 02:29:16;;;;;;;13.23;8.77;;;;;;;-141.28;100.00;50412.66;5106822;28;20245;-75
2022/09/09 02:31:47;;;;;;;11.97;8.67;;;;;;;-141.28;100.00;50361.63;5100923;28;20210;-75
2022/09/09 02:34:17;;;;;;;12.40;9.20;;;;;;;-141.28;100.00;50285.06;5094935;28;20207;-74
2022/09/09 02:36:47;;;;;;;9.73;8.73;;;;;;;-141.28;100.00;50241.88;5102154;28;20635;-76
2022/09/09 02:39:15;;;;;;;19.00;9.60;;;;;;;-141.28;100.00;50184.97;5108145;28;20218;-73
2022/09/09 02:41:43;;;;;;;15.47;8.73;;;;;;;-141.28;100.00;50181.03;5111936;28;20202;-75
2022/09/09 02:44:13;;;;;;;12.63;9.10;;;;;;;-141.28;100.00;50165.34;5093812;28;20216;-76
2022/09/09 02:47:01;;;;;;;13.17;9.27;;;;;;;-141.28;100.00;50181.03;5104775;28;20191;-74
2022/09/09 02:49:37;;;;;;;16.23;9.33;;;;;;;-141.28;100.00;50206.56;5091915;28;20227;-77
2022/09/09 02:52:07;;;;;;;15.63;9.33;;;;;;;-141.28;100.00;50147.69;5108939;28;20633;-74
2022/09/09 02:54:39;;;;;;;12.37;9.43;;;;;;;-141.28;100.00;50124.13;5111470;28;20202;-75
2022/09/09 02:57:11;;;;;;;14.77;9.60;;;;;;;-141.28;100.00;50092.72;5096746;28;20198;-75
2022/09/09 02:59:41;;;;;;;16.33;10.20;;;;;;;-141.28;100.00;50100.56;5110407;28;20210;-76
2022/09/09 03:02:11;;;;;;;12.93;9.80;;;;;;;-141.28;100.00;50059.34;5111790;28;20738;-76
2022/09/09 03:04:39;;;;;;;21.57;10.47;;;;;;;-141.28;100.00;50043.66;5092456;28;20290;-76
2022/09/09 03:07:06;;;;;;;18.03;10.37;;;;;;;-141.28;100.00;50012.25;5109321;28;20668;-73
2022/09/09 03:09:33;;;;;;;14.37;9.10;;;;;;;-141.28;100.00;49994.59;5110532;28;20214;-74
2022/09/09 03:12:01;;;;;;;15.13;9.23;;;;;;;-141.28;100.00;49976.94;5105918;28;20223;-76
2022/09/09 03:14:30;;;;;;;10.80;9.33;;;;;;;-141.28;100.00;49984.78;5102868;28;20226;-74
2022/09/09 03:17:00;;;;;;;13.07;9.07;;;;;;;-141.28;100.00;49992.63;5086575;28;20708;-78
2022/09/09 03:19:29;;;;;;;16.57;9.83;;;;;;;-141.28;100.00;50020.09;5086554;28;20206;-78
2022/09/09 03:21:58;;;;;;;15.80;9.17;;;;;;;-141.28;100.00;50041.69;5084005;28;20210;-75
2022/09/09 03:24:26;;;;;;;15.17;9.33;;;;;;;-141.28;100.00;50027.97;5072656;28;20192;-75
2022/09/09 03:26:53;;;;;;;19.83;9.50;;;;;;;-141.28;100.00;50051.50;5072117;28;20196;-75
2022/09/09 03:29:21;;;;;;;12.80;9.30;;;;;;;-141.28;100.00;50075.06;5080205;28;20204;-76
2022/09/09 03:31:48;;;;;;;15.30;8.73;;;;;;;-141.28;100.00;50110.38;5091184;28;20195;-75
2022/09/09 03:34:17;;;;;;;19.57;9.53;;;;;;;-141.28;100.00;50184.97;5075971;28;20215;-76
2022/09/09 03:36:44;;;;;;;15.77;8.43;;;;;;;-141.28;100.00;50208.53;5099618;28;20199;-75
2022/09/09 03:39:11;;;;;;;14.37;9.27;;;;;;;-141.28;100.00;50239.94;5072604;28;20201;-75
2022/09/09 03:41:38;;;;;;;15.73;8.83;;;;;;;-141.28;100.00;50216.38;5099538;28;20538;-74
2022/09/09 03:44:05;;;;;;;15.33;9.20;;;;;;;-141.28;100.00;50200.66;5092442;28;20584;-73
2022/09/09 03:46:32;;;;;;;21.87;9.93;;;;;;;-141.28;100.00;50202.63;5097255;28;20636;-74
2022/09/09 03:48:59;;;;;;;16.40;9.00;;;;;;;-141.28;100.00;50216.38;5085272;28;20660;-74
2022/09/09 03:51:28;;;;;;;17.53;10.07;;;;;;;-141.28;100.00;50208.53;5097477;28;20781;-75
2022/09/09 03:53:56;;;;;;;20.47;9.80;;;;;;;-141.28;100.00;50159.44;5077980;28;20196;-76
2022/09/09 03:56:23;;;;;;;17.17;9.17;;;;;;;-141.28;100.00;50149.63;5090998;28;20202;-76
2022/09/09 03:58:50;;;;;;;17.00;9.40;;;;;;;-141.28;100.00;50114.31;5099022;28;20187;-75
2022/09/09 04:01:18;;;;;;;16.57;9.47;;;;;;;-141.28;100.00;50065.25;5111675;28;20199;-75
2022/09/09 04:03:45;;;;;;;12.70;9.00;;;;;;;-141.28;100.00;50096.66;5104124;28;20234;-76
2022/09/09 04:06:14;;;;;;;16.67;9.17;;;;;;;-141.28;100.00;50098.63;5105420;28;20195;-76
2022/09/09 04:08:44;;;;;;;19.17;9.90;;;;;;;-141.28;100.00;50130.00;5102812;28;20195;-75
2022/09/09 04:11:12;;;;;;;20.03;9.93;;;;;;;-141.28;100.00;50078.97;5102517;28;20233;-77
2022/09/09 04:13:40;;;;;;;25.07;10.50;;;;;;;-141.28;100.00;50102.53;5098742;28;20195;-77
2022/09/09 04:16:10;;;;;;;19.23;9.80;;;;;;;-141.28;100.00;50071.13;5093849;28;20560;-75
2022/09/09 04:18:37;;;;;;;21.67;9.73;;;;;;;-141.28;100.00;50098.63;5090703;28;20559;-77
2022/09/09 04:21:06;;;;;;;17.13;10.27;;;;;;;-141.28;100.00;50075.06;5094408;28;20218;-79
2022/09/09 04:23:36;;;;;;;24.10;10.40;;;;;;;-141.28;100.00;50106.47;5114511;28;20203;-77
2022/09/09 04:26:08;;;;;;;22.77;9.73;;;;;;;-141.28;100.00;50110.38;5110162;28;20202;-75
2022/09/09 04:28:37;;;;;;;26.43;10.13;;;;;;;-141.28;100.00;50073.09;5106434;28;20199;-76
2022/09/09 04:31:12;;;;;;;17.00;10.37;;;;;;;-141.28;100.00;50043.66;5113954;28;20226;-78
2022/09/09 04:33:39;;;;;;;28.53;10.60;;;;;;;-141.28;100.00;50020.09;5114206;28;20204;-76
2022/09/09 04:36:06;;;;;;;19.43;10.07;;;;;;;-141.28;100.00;50016.19;5074438;28;20279;-76
2022/09/09 04:38:33;;;;;;;22.33;10.00;;;;;;;-141.28;100.00;50016.19;5088130;28;20199;-77
2022/09/09 04:41:01;;;;;;;15.00;9.27;;;;;;;-141.28;100.00;49984.78;5087125;28;20216;-75
2022/09/09 04:43:30;;;;;;;17.37;9.07;;;;;;;-141.28;100.00;50031.88;5075073;28;20220;-74
2022/09/09 04:45:59;;;;;;;19.17;10.47;;;;;;;-141.28;100.00;50010.28;5102464;28;20680;-76
2022/09/09 04:48:27;;;;;;;27.90;11.47;;;;;;;-141.28;100.00;50082.91;5113905;28;20545;-76
2022/09/09 04:50:58;;;;;;;13.40;9.73;;;;;;;-141.28;100.00;50112.34;5114545;28;20688;-74
2022/09/09 04:53:26;;;;;;;12.63;8.67;;;;;;;-141.28;100.00;50133.94;5098225;28;20207;-75
2022/09/09 04:55:53;;;;;;;17.03;9.80;;;;;;;-141.28;100.00;50133.94;5093945;28;20261;-77
2022/09/09 04:58:22;;;;;;;14.20;9.60;;;;;;;-141.28;100.00;50137.88;5094193;28;20199;-76
2022/09/09 05:00:51;;;;;;;18.67;8.93;;;;;;;-141.28;100.00;50108.44;5094486;28;20651;-75
2022/09/09 05:03:20;;;;;;;22.87;9.27;;;;;;;-141.28;100.00;50130.00;5094195;28;20330;-76
2022/09/09 05:05:47;;;;;;;14.90;10.00;;;;;;;-141.28;100.00;50161.41;5088876;28;20622;-76
2022/09/09 05:08:15;;;;;;;17.50;9.47;;;;;;;-141.28;100.00;50131.97;5085076;28;20211;-75
2022/09/09 05:10:43;;;;;;;13.63;9.23;;;;;;;-141.28;100.00;50149.63;5105515;28;20711;-75
2022/09/09 05:13:11;;;;;;;11.33;8.57;;;;;;;-141.28;100.00;50257.59;5093346;28;20207;-75
2022/09/09 05:15:38;;;;;;;14.03;9.43;;;;;;;-141.28;100.00;50236.00;5111462;28;20195;-74
2022/09/09 05:18:08;;;;;;;15.40;9.70;;;;;;;-141.28;100.00;50212.44;5113138;28;20661;-76
2022/09/09 05:20:37;;;;;;;12.47;9.53;;;;;;;-141.28;100.00;50267.41;5093004;28;20214;-75
2022/09/09 05:23:05;;;;;;;12.43;8.33;;;;;;;-141.28;100.00;50334.13;5093235;28;20200;-77
2022/09/09 05:25:32;;;;;;;16.23;9.13;;;;;;;-141.28;100.00;50483.31;5094378;28;20224;-77
2022/09/09 05:27:59;;;;;;;12.27;8.83;;;;;;;-141.28;100.00;50585.38;5093472;28;20219;-76
2022/09/09 05:30:26;;;;;;;17.23;8.37;;;;;;;-141.28;100.00;50693.34;5081800;28;20311;-77
2022/09/09 05:32:56;;;;;;;15.90;8.60;;;;;;;-141.28;100.00;50824.88;5077470;28;20229;-77
2022/09/09 05:35:24;;;;;;;11.23;7.93;;;;;;;-141.28;100.00;51013.31;5063813;28;20283;-75
2022/09/09 05:37:51;;;;;;;20.73;8.90;;;;;;;-141.28;100.00;51111.50;5078726;28;20555;-75
2022/09/09 05:40:19;;;;;;;14.40;8.57;;;;;;;-141.28;100.00;51313.72;5093372;28;20382;-76
2022/09/09 05:42:46;;;;;;;12.83;7.83;;;;;;;-141.28;100.00;51388.31;5083816;28;20709;-74
2022/09/09 05:45:13;;;;;;;12.87;7.80;;;;;;;-141.28;100.00;51425.63;5071526;28;20260;-75
2022/09/09 05:47:40;;;;;;;11.27;7.30;;;;;;;-141.28;100.00;51510.06;5105302;28;20202;-75
2022/09/09 05:50:08;;;;;;;16.37;7.80;;;;;;;-141.28;100.00;51641.59;5099354;28;20210;-75
2022/09/09 05:52:36;;;;;;;14.73;8.43;;;;;;;-141.28;100.00;51690.69;5093405;28;20203;-76
2022/09/09 05:55:04;;;;;;;19.57;7.60;;;;;;;-141.28;100.00;51649.47;5073031;28;20207;-79
2022/09/09 05:57:32;;;;;;;15.60;7.20;;;;;;;-141.28;100.00;51594.47;5073400;28;20292;-74
2022/09/09 05:59:59;;;;;;;12.77;6.67;;;;;;;-141.28;100.00;51606.25;5087816;28;20198;-75
2022/09/09 06:02:26;;;;;;;13.93;6.40;;;;;;;-141.28;100.00;51598.41;5098821;28;20227;-75
2022/09/09 06:04:55;;;;;;;11.20;6.67;;;;;;;-141.28;100.00;51567.00;5116234;28;20191;-74
2022/09/09 06:07:23;;;;;;;13.93;6.17;;;;;;;-141.28;100.00;51543.44;5104393;28;20199;-74
2022/09/09 06:09:53;;;;;;;8.63;5.70;;;;;;;-141.28;100.00;51508.09;5113996;28;20198;-74
2022/09/09 06:12:21;;;;;;;9.50;6.30;;;;;;;-141.28;100.00;51460.97;5096921;28;20230;-77
2022/09/09 06:14:48;;;;;;;12.10;6.10;;;;;;;-141.28;100.00;51406.00;5101566;28;20556;-75
2022/09/09 06:17:16;;;;;;;13.83;6.13;;;;;;;-141.28;100.00;51268.56;5111541;28;20200;-74
2022/09/09 06:19:43;;;;;;;9.23;6.00;;;;;;;-141.28;100.00;51272.47;5093230;28;20210;-75
2022/09/09 06:22:12;;;;;;;12.20;5.87;;;;;;;-141.28;100.00;51260.69;5074653;28;20199;-74
2022/09/09 06:24:40;;;;;;;10.77;5.67;;;;;;;-141.28;100.00;51217.50;5084079;28;20199;-75
2022/09/09 06:27:08;;;;;;;9.43;5.80;;;;;;;-141.28;100.00;51205.72;5074714;28;20246;-75
2022/09/09 06:29:36;;;;;;;6.80;5.63;;;;;;;-141.28;100.00;51160.56;5085097;28;20223;-78
2022/09/09 06:32:03;;;;;;;9.13;5.50;;;;;;;-141.28;100.00;51127.19;5073588;28;20224;-74
2022/09/09 06:34:30;;;;;;;11.00;5.80;;;;;;;-141.28;100.00;51040.81;5071844;28;20569;-77
2022/09/09 06:36:58;;;;;;;13.60;6.40;;;;;;;-141.28;100.00;50962.28;5072691;28;20188;-74
2022/09/09 06:39:26;;;;;;;14.50;6.70;;;;;;;-141.28;100.00;50897.50;5085657;28;20249;-77
2022/09/09 06:41:53;;;;;;;12.57;6.13;;;;;;;-141.28;100.00;50915.16;5072046;28;20208;-75
2022/09/09 06:44:22;;;;;;;6.87;5.00;;;;;;;-141.28;100.00;50860.19;5077575;28;20220;-76
2022/09/09 06:46:49;;;;;;;7.63;5.53;;;;;;;-141.28;100.00;50881.78;5086604;28;20202;-75
2022/09/09 06:49:16;;;;;;;8.83;5.40;;;;;;;-141.28;100.00;50960.31;5083996;28;20204;-76
2022/09/09 06:51:44;;;;;;;8.07;5.57;;;;;;;-141.28;100.00;50875.91;5071857;28;20230;-77
2022/09/09 06:54:12;;;;;;;7.77;5.17;;;;;;;-141.28;100.00;50844.50;5071899;28;20226;-73
2022/09/09 06:56:42;;;;;;;9.83;4.80;;;;;;;-141.28;100.00;50773.81;5074002;28;20227;-74
2022/09/09 06:59:10;;;;;;;9.43;5.03;;;;;;;-141.28;100.00;50699.22;5101973;28;20602;-76
2022/09/09 07:01:41;;;;;;;12.23;5.10;;;;;;;-141.28;100.00;50762.06;5107175;28;20223;-75
2022/09/09 07:04:08;;;;;;;7.97;4.80;;;;;;;-141.28;100.00;50648.19;5102434;28;20631;-75
2022/09/09 07:06:37;;;;;;;7.53;5.00;;;;;;;-141.28;100.00;50530.41;5105686;28;20678;-78
2022/09/09 07:09:05;;;;;;;5.03;4.53;;;;;;;-141.28;100.00;50455.84;5102808;28;20253;-77
2022/09/09 07:11:35;;;;;;;12.33;5.30;;;;;;;-141.28;100.00;50232.06;5110081;28;20688;-76
2022/09/09 07:14:02;;;;;;;7.93;4.70;;;;;;;-141.28;100.00;50149.63;5111444;28;20227;-74
2022/09/09 07:16:31;;;;;;;17.53;4.80;;;;;;;-141.28;100.00;50077.03;5095741;28;20752;-76
2022/09/09 07:19:01;;;;;;;7.47;4.67;;;;;;;-141.28;100.00;50035.81;5111068;28;20196;-78
2022/09/09 07:21:30;;;;;;;6.97;4.90;;;;;;;-141.28;100.00;50033.84;5078415;28;20276;-76
2022/09/09 07:23:58;;;;;;;9.37;4.63;;;;;;;-141.28;100.00;50086.84;5090165;28;20192;-74
2022/09/09 07:26:27;;;;;;;8.23;5.00;;;;;;;-141.28;100.00;50004.41;5098461;28;20196;-75
2022/09/09 07:28:55;;;;;;;7.03;5.20;;;;;;;-141.28;100.00;50031.88;5092128;28;20203;-74
2022/09/09 07:31:25;;;;;;;8.83;4.93;;;;;;;-141.28;100.00;49925.91;5072136;28;20216;-75
2022/09/09 07:33:53;;;;;;;10.90;5.87;;;;;;;-141.28;100.00;50104.50;5097851;28;20196;-75
2022/09/09 07:36:24;;;;;;;8.17;4.97;;;;;;;-141.28;100.00;50283.09;5071329;28;20196;-75
2022/09/09 07:38:53;;;;;;;11.23;4.80;;;;;;;-141.28;100.00;50314.50;5071261;28;20205;-74
2022/09/09 07:41:24;;;;;;;7.47;5.20;;;;;;;-141.28;100.00;50247.78;5071422;28;20204;-77
2022/09/09 07:43:53;;;;;;;9.60;5.07;;;;;;;-141.28;100.00;50271.31;5074951;28;20227;-78
2022/09/09 07:46:23;;;;;;;16.40;5.30;;;;;;;-141.28;100.00;50169.28;5091513;28;20211;-75
2022/09/09 07:48:51;;;;;;;15.10;5.33;;;;;;;-141.28;100.00;50228.16;5072637;28;20196;-74
2022/09/09 07:51:23;;;;;;;8.97;5.33;;;;;;;-141.28;100.00;50141.78;5084996;28;20231;-74
2022/09/09 07:53:54;;;;;;;10.30;5.23;;;;;;;-141.28;100.00;50106.47;5108509;28;20195;-74
2022/09/09 07:56:23;;;;;;;10.17;5.57;;;;;;;-141.28;100.00;50106.47;5106109;28;20202;-75
2022/09/09 07:58:52;;;;;;;10.83;6.47;;;;;;;-141.28;100.00;49973.00;5074934;28;20201;-74
2022/09/09 08:01:20;;;;;;;12.47;4.90;;;;;;;-141.28;100.00;49918.06;5075629;28;20200;-76
2022/09/09 08:03:53;;;;;;;9.43;4.90;;;;;;;-141.28;100.00;49806.19;5075442;28;20227;-77
2022/09/09 08:06:21;;;;;;;10.50;5.10;;;;;;;-141.28;100.00;49690.41;5075832;28;20200;-74
2022/09/09 08:08:52;;;;;;;8.50;5.17;;;;;;;-141.28;100.00;49664.91;5086309;28;20248;-77
2022/09/09 08:11:19;;;;;;;10.90;5.13;;;;;;;-141.28;100.00;49464.72;5096631;28;20652;-77
2022/09/09 08:13:47;;;;;;;8.30;4.67;;;;;;;-141.28;100.00;49231.22;5095665;28;20212;-75
2022/09/09 08:16:16;;;;;;;11.27;4.83;;;;;;;-141.28;100.00;49144.91;5086617;28;20727;-77
2022/09/09 08:18:43;;;;;;;9.27;5.57;;;;;;;-141.28;100.00;49091.91;5077876;28;20197;-79
2022/09/09 08:21:15;;;;;;;8.33;5.37;;;;;;;-141.28;100.00;49089.97;5094731;28;20202;-77
2022/09/09 08:23:45;;;;;;;17.97;5.53;;;;;;;-141.28;100.00;49025.22;5081618;28;20282;-76
2022/09/09 08:26:16;;;;;;;10.40;4.90;;;;;;;-141.28;100.00;49066.41;5084082;28;20200;-78
2022/09/09 08:28:44;;;;;;;18.40;5.93;;;;;;;-141.28;100.00;48940.84;5079879;28;20581;-75
2022/09/09 08:31:14;;;;;;;7.53;4.80;;;;;;;-141.28;100.00;48901.59;5082753;28;20251;-75
2022/09/09 08:33:45;;;;;;;12.13;5.10;;;;;;;-141.28;100.00;48885.91;5088255;28;20193;-76
2022/09/09 08:36:15;;;;;;;9.67;5.20;;;;;;;-141.28;100.00;48909.47;5075150;28;20199;-79
2022/09/09 08:38:45;;;;;;;11.70;5.50;;;;;;;-141.28;100.00;48936.91;5087393;28;20555;-78
2022/09/09 08:41:35;;;;;;;14.10;5.90;;;;;;;-141.28;100.00;48913.38;5075216;28;20236;-74
2022/09/09 08:44:08;;;;;;;8.57;4.97;;;;;;;-141.28;100.00;48925.16;5080689;28;20310;-77
2022/09/09 08:46:47;;;;;;;9.63;5.20;;;;;;;-141.28;100.00;48948.69;5094845;28;20705;-77
2022/09/09 08:49:46;;;;;;;8.80;4.60;;;;;;;-141.28;100.00;48960.47;5074256;28;20200;-74
2022/09/09 08:52:19;;;;;;;9.53;4.70;;;;;;;-141.28;100.00;48925.16;5074233;28;20599;-76
2022/09/09 08:55:15;;;;;;;5.73;4.80;;;;;;;-141.28;100.00;48964.38;5088177;28;20204;-75
2022/09/09 08:58:00;;;;;;;7.40;5.20;;;;;;;-141.28;100.00;48995.78;5094272;28;20662;-77
2022/09/09 09:00:34;;;;;;;13.23;5.23;;;;;;;-141.28;100.00;49013.44;5082391;28;20196;-76
2022/09/09 09:03:20;;;;;;;10.67;5.43;;;;;;;-141.28;100.00;48991.84;5074047;28;20711;-78
2022/09/09 09:05:58;;;;;;;8.80;5.40;;;;;;;-141.28;100.00;48948.69;5074120;28;20204;-76
2022/09/09 09:08:32;;;;;;;16.10;5.97;;;;;;;-141.28;100.00;48779.97;5086829;28;21200;-76
2022/09/09 09:11:01;;;;;;;17.73;5.93;;;;;;;-141.28;100.00;48913.38;5074100;28;20208;-74
2022/09/09 09:13:36;;;;;;;19.50;5.90;;;;;;;-141.28;100.00;48901.59;5077787;28;20195;-77
2022/09/09 09:16:24;;;;;;;9.23;5.60;;;;;;;-141.28;100.00;48903.56;5081290;28;20193;-78
2022/09/09 09:18:53;;;;;;;15.60;5.33;;;;;;;-141.28;100.00;48842.75;5073778;28;20196;-76
2022/09/09 09:21:29;;;;;;;12.10;5.17;;;;;;;-141.28;100.00;48842.75;5091754;28;20208;-76
2022/09/09 09:23:59;;;;;;;12.67;5.10;;;;;;;-141.28;100.00;48834.91;5113295;28;20198;-77
2022/09/09 09:26:33;;;;;;;9.43;5.00;;;;;;;-141.28;100.00;48842.75;5094514;28;20249;-75
2022/09/09 09:29:02;;;;;;;10.00;5.07;;;;;;;-141.28;100.00;48836.88;5093268;28;20283;-76
2022/09/09 09:31:29;;;;;;;11.57;5.53;;;;;;;-141.28;100.00;48858.44;5096006;28;20772;-75
2022/09/09 09:33:58;;;;;;;8.40;5.20;;;;;;;-141.28;100.00;48842.75;5103309;28;20705;-76
2022/09/09 09:36:35;;;;;;;8.50;4.93;;;;;;;-141.28;100.00;48846.69;5093151;28;20204;-78
2022/09/09 09:39:06;;;;;;;11.20;5.07;;;;;;;-141.28;100.00;48870.22;5105699;28;20287;-76
2022/09/09 09:41:37;;;;;;;8.00;5.67;;;;;;;-141.28;100.00;48901.59;5112966;28;20577;-75
2022/09/09 09:44:07;;;;;;;16.00;5.50;;;;;;;-141.28;100.00;48893.75;5091683;28;20630;-76
2022/09/09 09:46:36;;;;;;;15.63;5.90;;;;;;;-141.28;100.00;48842.75;5093209;28;20574;-76
2022/09/09 09:49:06;;;;;;;8.37;5.67;;;;;;;-141.28;100.00;48834.91;5091455;28;20655;-75
2022/09/09 09:51:36;;;;;;;11.10;5.53;;;;;;;-141.28;100.00;48834.91;5092871;28;20256;-76
2022/09/09 09:54:15;;;;;;;7.97;5.03;;;;;;;-141.28;100.00;48830.97;5092645;28;20201;-73
2022/09/09 09:56:45;;;;;;;9.60;5.30;;;;;;;-141.28;100.00;48803.50;5085833;28;20231;-76
2022/09/09 09:59:24;;;;;;;19.07;5.63;;;;;;;-141.28;100.00;48823.13;5107257;28;20199;-76
2022/09/09 10:01:52;;;;;;;10.47;5.47;;;;;;;-141.28;100.00;48819.22;5099898;28;20257;-76
2022/09/09 10:04:23;;;;;;;8.87;5.30;;;;;;;-141.28;100.00;48827.06;5112371;28;20222;-75
2022/09/09 10:06:50;;;;;;;7.70;5.20;;;;;;;-141.28;100.00;48866.28;5087433;28;20191;-77
2022/09/09 10:09:25;;;;;;;8.70;5.60;;;;;;;-141.28;100.00;48834.91;5110841;28;20666;-76
2022/09/09 10:12:04;;;;;;;11.30;5.03;;;;;;;-141.28;100.00;48862.38;5112262;28;20275;-79
2022/09/09 10:14:40;;;;;;;9.80;5.77;;;;;;;-141.28;100.00;48842.75;5097755;28;20191;-76
2022/09/09 10:17:23;;;;;;;8.47;5.13;;;;;;;-141.28;100.00;48842.75;5100352;28;20195;-75
2022/09/09 10:20:02;;;;;;;12.03;5.40;;;;;;;-141.28;100.00;48864.34;5079518;28;20191;-75
2022/09/09 10:22:35;;;;;;;11.83;5.90;;;;;;;-141.28;100.00;48870.22;5104319;28;20205;-75
2022/09/09 10:25:40;;;;;;;11.00;5.20;;;;;;;-141.28;100.00;48893.75;5091811;28;20624;-78
2022/09/09 10:28:34;;;;;;;9.47;5.27;;;;;;;-141.28;100.00;48980.09;5051996;28;20282;-75
2022/09/09 10:31:11;;;;;;;11.43;5.73;;;;;;;-141.28;100.00;48915.34;5089142;28;20256;-76
2022/09/09 10:33:48;;;;;;;11.13;5.53;;;;;;;-141.28;100.00;48933.00;5111096;28;20267;-75
2022/09/09 10:36:20;;;;;;;7.10;5.30;;;;;;;-141.28;100.00;48944.78;5111102;28;20201;-75
2022/09/09 10:38:50;;;;;;;8.43;5.00;;;;;;;-141.28;100.00;48909.47;5100715;28;20211;-75
2022/09/09 10:41:21;;;;;;;13.77;5.80;;;;;;;-141.28;100.00;48976.16;5101384;28;20192;-75
2022/09/09 10:44:25;;;;;;;11.10;5.50;;;;;;;-141.28;100.00;48952.63;5083663;28;20269;-76
2022/09/09 10:47:15;;;;;;;7.83;5.50;;;;;;;-141.28;100.00;48964.38;5105676;28;20644;-74
2022/09/09 10:50:05;;;;;;;11.27;5.37;;;;;;;-141.28;100.00;48984.00;5092258;28;20207;-74
2022/09/09 10:52:40;;;;;;;10.30;5.37;;;;;;;-141.28;100.00;48972.25;5100548;28;20218;-75
2022/09/09 10:55:15;;;;;;;13.10;4.97;;;;;;;-141.28;100.00;48893.75;5094329;28;20190;-75
2022/09/09 10:57:44;;;;;;;11.53;5.73;;;;;;;-141.28;100.00;48995.78;5103406;28;20202;-76
2022/09/09 11:00:20;;;;;;;7.63;5.53;;;;;;;-141.28;100.00;48980.09;5111083;28;20194;-75
2022/09/09 11:03:01;;;;;;;12.83;5.97;;;;;;;-141.28;100.00;49076.22;5111004;28;20238;-77
2022/09/09 11:05:35;;;;;;;8.57;5.40;;;;;;;-141.28;100.00;48982.03;5080498;28;20213;-76
2022/09/09 11:08:08;;;;;;;8.50;5.60;;;;;;;-141.28;100.00;49044.84;5106580;28;20674;-76
2022/09/09 11:10:41;;;;;;;12.37;5.80;;;;;;;-141.28;100.00;49017.38;5111385;28;20195;-76
2022/09/09 11:13:17;;;;;;;18.47;6.90;;;;;;;-141.28;100.00;49113.50;5092312;28;20230;-78
2022/09/09 11:15:51;;;;;;;10.27;5.90;;;;;;;-141.28;100.00;48999.72;5091206;28;20203;-76
2022/09/09 11:18:22;;;;;;;10.53;5.60;;;;;;;-141.28;100.00;49021.28;5095197;28;20269;-75
2022/09/09 11:20:55;;;;;;;9.00;5.73;;;;;;;-141.28;100.00;48984.00;5077594;28;20637;-77
2022/09/09 11:23:27;;;;;;;15.37;6.40;;;;;;;-141.28;100.00;49031.09;5071745;28;20204;-74
2022/09/09 11:26:03;;;;;;;12.67;5.60;;;;;;;-141.28;100.00;49056.59;5071651;28;20200;-76